createdAt,value
2023-01-15T00:00:55.282Z,3.72
2023-01-15T00:03:30.208Z,3.52
2023-01-15T00:06:06.064Z,3.52
2023-01-15T00:08:40.513Z,3.46
2023-01-15T00:11:15.257Z,3.21
2023-01-15T00:13:50.512Z,3.37
2023-01-15T00:16:26.506Z,3.35
2023-01-15T00:19:04.502Z,3.23
2023-01-15T00:21:40.352Z,3.33
2023-01-15T00:24:32.571Z,3.24
2023-01-15T00:27:24.305Z,3.37
2023-01-15T00:30:00.994Z,3.25
2023-01-15T00:32:35.235Z,3.21
2023-01-15T00:35:14.042Z,3.25
2023-01-15T00:37:51.458Z,3.09
2023-01-15T00:40:28.076Z,3.29
2023-01-15T00:43:02.248Z,3.21
2023-01-15T00:45:36.765Z,3.29
2023-01-15T00:48:10.958Z,3.19
2023-01-15T00:50:48.146Z,3.17
2023-01-15T00:53:23.977Z,3.33
2023-01-15T00:55:58.626Z,3.12
2023-01-15T00:58:32.935Z,3.15
2023-01-15T01:01:07.958Z,3.12
2023-01-15T01:03:42.370Z,3.20
2023-01-15T01:06:17.745Z,3.15
2023-01-15T01:08:53.402Z,3.27
2023-01-15T01:11:33.060Z,3.18
2023-01-15T01:14:07.335Z,3.21
2023-01-15T01:16:43.258Z,3.23
2023-01-15T01:19:20.973Z,3.28
2023-01-15T01:21:56.770Z,3.18
2023-01-15T01:24:32.533Z,3.19
2023-01-15T01:27:07.045Z,3.05
2023-01-15T01:29:41.418Z,3.08
2023-01-15T01:32:16.815Z,3.05
2023-01-15T01:34:50.988Z,3.10
2023-01-15T01:37:25.455Z,3.20
2023-01-15T01:40:02.167Z,3.14
2023-01-15T01:42:37.158Z,3.09
2023-01-15T01:45:25.131Z,3.04
2023-01-15T01:48:03.885Z,2.95
2023-01-15T01:50:40.812Z,3.16
2023-01-15T01:53:19.135Z,3.09
2023-01-15T01:55:56.711Z,3.15
2023-01-15T01:58:33.454Z,3.02
2023-01-15T02:01:08.124Z,3.00
2023-01-15T02:03:42.949Z,3.01
2023-01-15T02:06:17.791Z,2.99
2023-01-15T02:08:52.243Z,2.87
2023-01-15T02:11:29.146Z,2.83
2023-01-15T02:14:10.892Z,2.86
2023-01-15T02:16:49.744Z,2.54
2023-01-15T02:19:38.886Z,2.70
2023-01-15T02:22:28.898Z,2.79
2023-01-15T02:25:12.325Z,2.69
2023-01-15T02:27:53.310Z,2.68
2023-01-15T02:30:33.389Z,2.71
2023-01-15T02:33:11.567Z,2.70
2023-01-15T02:35:51.713Z,2.68
2023-01-15T02:38:29.789Z,2.72
2023-01-15T02:41:16.352Z,2.67
2023-01-15T02:43:57.785Z,2.52
2023-01-15T02:46:35.194Z,2.45
2023-01-15T02:49:13.698Z,2.37
2023-01-15T02:51:55.378Z,2.38
2023-01-15T02:54:36.519Z,2.37
2023-01-15T02:57:12.838Z,2.32
2023-01-15T02:59:51.421Z,2.26
2023-01-15T03:02:32.292Z,2.29
2023-01-15T03:05:10.987Z,2.34
2023-01-15T03:07:51.405Z,2.51
2023-01-15T03:10:37.502Z,2.47
2023-01-15T03:13:16.829Z,2.30
2023-01-15T03:16:18.159Z,2.37
2023-01-15T03:18:57.715Z,2.32
2023-01-15T03:21:41.161Z,2.20
2023-01-15T03:24:20.409Z,2.22
2023-01-15T03:26:55.916Z,2.13
2023-01-15T03:29:35.893Z,2.22
2023-01-15T03:32:12.318Z,2.32
2023-01-15T03:34:51.384Z,2.37
2023-01-15T03:37:28.787Z,2.21
2023-01-15T03:40:05.621Z,2.31
2023-01-15T03:43:10.964Z,2.36
2023-01-15T03:45:49.145Z,2.26
2023-01-15T03:48:32.285Z,2.20
2023-01-15T03:51:16.504Z,2.20
2023-01-15T03:53:55.107Z,2.20
2023-01-15T03:56:36.896Z,2.12
2023-01-15T03:59:14.726Z,2.20
2023-01-15T04:01:51.867Z,2.39
2023-01-15T04:04:30.157Z,2.31
2023-01-15T04:07:05.501Z,2.25
2023-01-15T04:09:44.093Z,2.29
2023-01-15T04:12:18.621Z,2.32
2023-01-15T04:14:53.339Z,2.39
2023-01-15T04:17:27.741Z,2.27
2023-01-15T04:20:07.609Z,2.14
2023-01-15T04:22:42.843Z,2.09
2023-01-15T04:25:17.561Z,2.07
2023-01-15T04:27:51.794Z,2.02
2023-01-15T04:30:26.865Z,2.03
2023-01-15T04:33:01.021Z,1.89
2023-01-15T04:35:39.010Z,1.99
2023-01-15T04:38:13.496Z,2.02
2023-01-15T04:41:03.005Z,1.90
2023-01-15T04:43:54.756Z,1.91
2023-01-15T04:46:29.274Z,1.94
2023-01-15T04:49:03.873Z,1.85
2023-01-15T04:51:40.498Z,1.83
2023-01-15T04:54:16.464Z,1.76
2023-01-15T04:56:53.935Z,1.70
2023-01-15T04:59:28.896Z,1.73
2023-01-15T05:02:06.339Z,1.65
2023-01-15T05:04:42.455Z,1.45
2023-01-15T05:07:18.479Z,1.51
2023-01-15T05:09:54.953Z,1.47
2023-01-15T05:12:30.541Z,1.40
2023-01-15T05:15:05.026Z,1.59
2023-01-15T05:17:39.616Z,1.53
2023-01-15T05:20:15.959Z,1.61
2023-01-15T05:22:53.315Z,1.71
2023-01-15T05:25:27.445Z,1.63
2023-01-15T05:28:01.946Z,1.74
2023-01-15T05:30:37.321Z,1.75
2023-01-15T05:33:11.905Z,1.72
2023-01-15T05:35:46.128Z,1.82
2023-01-15T05:38:22.059Z,1.65
2023-01-15T05:40:56.364Z,1.75
2023-01-15T05:43:30.784Z,1.78
2023-01-15T05:46:05.245Z,1.62
2023-01-15T05:48:39.908Z,1.78
2023-01-15T05:51:14.272Z,1.74
2023-01-15T05:53:50.282Z,1.63
2023-01-15T05:56:24.743Z,1.77
2023-01-15T05:58:59.364Z,1.81
2023-01-15T06:01:34.005Z,1.80
2023-01-15T06:04:08.921Z,1.76
2023-01-15T06:06:43.967Z,1.83
2023-01-15T06:09:20.528Z,1.96
2023-01-15T06:11:55.797Z,1.88
2023-01-15T06:14:30.394Z,1.76
2023-01-15T06:17:04.628Z,1.79
2023-01-15T06:19:39.100Z,1.91
2023-01-15T06:22:13.368Z,1.91
2023-01-15T06:24:49.192Z,6.13
2023-01-15T06:27:23.394Z,7.01
2023-01-15T06:29:59.386Z,4.59
2023-01-15T06:32:33.660Z,3.63
2023-01-15T06:35:08.855Z,3.04
2023-01-15T06:37:43.060Z,3.00
2023-01-15T06:40:21.721Z,2.73
2023-01-15T06:43:16.475Z,2.62
2023-01-15T06:46:08.683Z,2.54
2023-01-15T06:48:43.306Z,2.53
2023-01-15T06:51:20.593Z,2.43
2023-01-15T06:53:54.775Z,2.26
2023-01-15T06:56:30.760Z,2.29
2023-01-15T06:59:05.029Z,2.34
2023-01-15T07:02:55.905Z,2.24
2023-01-15T07:05:31.042Z,2.20
2023-01-15T07:08:05.967Z,2.33
2023-01-15T07:10:41.418Z,2.26
2023-01-15T07:13:15.567Z,2.04
2023-01-15T07:15:50.159Z,1.98
2023-01-15T07:18:26.115Z,2.09
2023-01-15T07:21:01.242Z,2.05
2023-01-15T07:23:36.069Z,2.06
2023-01-15T07:26:10.657Z,2.17
2023-01-15T07:28:45.002Z,2.12
2023-01-15T07:31:20.188Z,2.30
2023-01-15T07:33:57.300Z,2.51
2023-01-15T07:36:31.951Z,5.55
2023-01-15T07:39:06.766Z,5.99
2023-01-15T07:41:59.641Z,4.54
2023-01-15T07:44:51.394Z,5.58
2023-01-15T07:47:50.459Z,6.77
2023-01-15T07:50:27.679Z,5.00
2023-01-15T07:53:02.800Z,4.09
2023-01-15T07:55:37.709Z,3.63
2023-01-15T07:58:12.205Z,3.31
2023-01-15T08:00:49.047Z,3.17
2023-01-15T08:03:23.591Z,3.10
2023-01-15T08:05:59.628Z,3.19
2023-01-15T08:08:34.119Z,3.05
2023-01-15T08:11:25.248Z,2.97
2023-01-15T08:14:17.257Z,3.07
2023-01-15T08:16:51.494Z,3.16
2023-01-15T08:19:26.982Z,3.24
2023-01-15T08:22:02.789Z,3.15
2023-01-15T08:24:37.288Z,3.17
2023-01-15T08:27:11.616Z,3.36
2023-01-15T08:29:51.142Z,3.43
2023-01-15T08:32:25.787Z,3.48
2023-01-15T08:35:00.331Z,3.46
2023-01-15T08:37:36.252Z,3.48
2023-01-15T08:40:12.984Z,3.51
2023-01-15T08:42:48.664Z,3.64
2023-01-15T08:45:23.382Z,3.77
2023-01-15T08:47:58.406Z,3.79
2023-01-15T08:50:33.833Z,4.76
2023-01-15T08:53:13.443Z,6.13
2023-01-15T08:55:48.394Z,6.18
2023-01-15T08:58:42.906Z,4.89
2023-01-15T09:01:37.664Z,4.65
2023-01-15T09:04:15.737Z,4.27
2023-01-15T09:06:50.691Z,4.27
2023-01-15T09:09:26.408Z,4.15
2023-01-15T09:12:00.973Z,4.11
2023-01-15T09:15:00.822Z,4.16
2023-01-15T09:17:30.081Z,4.41
2023-01-15T09:20:04.998Z,4.41
2023-01-15T09:22:40.191Z,4.41
2023-01-15T09:25:16.472Z,4.67
2023-01-15T09:27:51.338Z,4.69
2023-01-15T09:30:25.664Z,4.77
2023-01-15T09:33:00.157Z,4.86
2023-01-15T09:35:34.387Z,4.92
2023-01-15T09:38:09.244Z,5.01
2023-01-15T09:40:51.038Z,5.11
2023-01-15T09:43:50.835Z,5.16
2023-01-15T09:46:34.979Z,5.18
2023-01-15T09:49:24.227Z,5.35
2023-01-15T09:52:07.335Z,5.41
2023-01-15T09:55:01.568Z,5.42
2023-01-15T09:57:38.486Z,5.47
2023-01-15T10:00:19.621Z,5.54
2023-01-15T10:02:56.647Z,5.55
2023-01-15T10:05:33.949Z,5.73
2023-01-15T10:08:16.048Z,5.70
2023-01-15T10:10:56.604Z,5.85
2023-01-15T10:13:35.585Z,5.85
2023-01-15T10:16:11.325Z,5.91
2023-01-15T10:18:45.795Z,6.02
2023-01-15T10:21:31.237Z,6.04
2023-01-15T10:24:12.159Z,6.17
2023-01-15T10:26:54.202Z,6.35
2023-01-15T10:29:38.470Z,6.34
2023-01-15T10:32:26.069Z,6.26
2023-01-15T10:35:25.697Z,6.47
2023-01-15T10:38:08.571Z,6.61
2023-01-15T10:41:37.919Z,6.56
2023-01-15T10:44:19.696Z,6.83
2023-01-15T10:47:01.104Z,6.85
2023-01-15T10:49:36.448Z,6.91
2023-01-15T10:52:23.680Z,7.00
2023-01-15T10:55:04.995Z,6.99
2023-01-15T10:57:46.884Z,7.02
2023-01-15T11:00:22.564Z,7.01
2023-01-15T11:03:04.233Z,6.95
2023-01-15T11:05:39.877Z,6.96
2023-01-15T11:09:06.785Z,6.89
2023-01-15T11:11:44.994Z,6.89
2023-01-15T11:14:42.797Z,6.85
2023-01-15T11:17:34.565Z,6.88
2023-01-15T11:20:21.800Z,6.83
2023-01-15T11:22:56.832Z,6.90
2023-01-15T11:25:33.529Z,6.96
2023-01-15T11:28:09.985Z,6.86
2023-01-15T11:30:45.421Z,6.82
2023-01-15T11:33:24.649Z,6.79
2023-01-15T11:36:02.189Z,6.70
2023-01-15T11:38:45.871Z,6.72
2023-01-15T11:41:25.276Z,6.72
2023-01-15T11:44:17.867Z,6.71
2023-01-15T11:47:14.459Z,6.72
2023-01-15T11:50:09.261Z,6.73
2023-01-15T11:52:49.476Z,6.78
2023-01-15T11:55:27.586Z,6.79
2023-01-15T11:58:02.998Z,6.90
2023-01-15T12:00:44.740Z,6.90
2023-01-15T12:03:21.846Z,7.00
2023-01-15T12:06:00.453Z,6.90
2023-01-15T12:08:49.447Z,6.88
2023-01-15T12:11:44.535Z,7.01
2023-01-15T12:14:40.747Z,7.05
2023-01-15T12:17:30.987Z,7.04
2023-01-15T12:20:19.594Z,7.00
2023-01-15T12:23:22.631Z,7.07
2023-01-15T12:26:08.807Z,7.23
2023-01-15T12:28:51.522Z,7.37
2023-01-15T12:31:33.302Z,7.41
2023-01-15T12:34:17.795Z,7.38
2023-01-15T12:36:56.438Z,7.30
2023-01-15T12:39:35.104Z,7.21
2023-01-15T12:42:34.622Z,7.14
2023-01-15T12:45:11.886Z,7.26
2023-01-15T12:47:52.173Z,7.33
2023-01-15T12:50:34.399Z,7.35
2023-01-15T12:53:18.092Z,7.32
2023-01-15T12:55:57.791Z,7.31
2023-01-15T12:58:44.973Z,7.90
2023-01-15T13:01:25.642Z,7.79
2023-01-15T13:04:11.875Z,7.51
2023-01-15T13:06:50.325Z,7.50
2023-01-15T13:09:40.037Z,7.49
2023-01-15T13:12:15.647Z,7.46
2023-01-15T13:14:51.617Z,7.50
2023-01-15T13:17:33.444Z,7.57
2023-01-15T13:20:26.259Z,7.65
2023-01-15T13:23:10.146Z,7.56
2023-01-15T13:26:01.479Z,7.42
2023-01-15T13:28:48.513Z,7.30
2023-01-15T13:31:59.171Z,7.24
2023-01-15T13:34:39.958Z,7.27
2023-01-15T13:37:24.148Z,7.27
2023-01-15T13:40:03.639Z,7.23
2023-01-15T13:42:40.863Z,7.19
2023-01-15T13:45:33.424Z,7.17
2023-01-15T13:48:14.587Z,6.97
2023-01-15T13:50:54.728Z,6.89
2023-01-15T13:53:32.065Z,6.94
2023-01-15T13:56:09.661Z,6.90
2023-01-15T13:58:54.830Z,6.92
2023-01-15T14:01:35.380Z,6.89
2023-01-15T14:04:16.461Z,6.83
2023-01-15T14:06:52.489Z,6.73
2023-01-15T14:09:32.092Z,6.77
2023-01-15T14:12:16.478Z,6.56
2023-01-15T14:15:17.695Z,6.61
2023-01-15T14:18:15.524Z,6.69
2023-01-15T14:21:08.957Z,6.59
2023-01-15T14:24:07.899Z,6.68
2023-01-15T14:26:51.552Z,6.55
2023-01-15T14:29:56.233Z,6.48
2023-01-15T14:32:49.438Z,6.45
2023-01-15T14:35:26.316Z,8.29
2023-01-15T14:38:06.556Z,7.19
2023-01-15T14:40:54.412Z,6.90
2023-01-15T14:43:33.522Z,6.77
2023-01-15T14:46:16.341Z,6.54
2023-01-15T14:48:51.222Z,8.72
2023-01-15T14:51:28.896Z,7.72
2023-01-15T14:54:07.602Z,7.30
2023-01-15T14:56:46.721Z,7.04
2023-01-15T14:59:25.902Z,6.94
2023-01-15T15:03:05.445Z,7.08
2023-01-15T15:05:44.459Z,7.08
2023-01-15T15:08:20.991Z,6.62
2023-01-15T15:10:57.432Z,6.50
2023-01-15T15:13:37.421Z,6.43
2023-01-15T15:16:19.604Z,6.33
2023-01-15T15:19:01.828Z,6.17
2023-01-15T15:21:41.889Z,6.27
2023-01-15T15:24:22.742Z,6.20
2023-01-15T15:26:57.415Z,6.20
2023-01-15T15:29:31.695Z,6.20
2023-01-15T15:32:06.562Z,6.14
2023-01-15T15:34:48.424Z,6.10
2023-01-15T15:37:26.289Z,6.09
2023-01-15T15:40:04.124Z,6.10
2023-01-15T15:43:01.670Z,6.06
2023-01-15T15:45:53.460Z,6.07
2023-01-15T15:48:45.733Z,5.95
2023-01-15T15:51:36.378Z,6.49
2023-01-15T15:54:15.922Z,6.25
2023-01-15T15:56:55.907Z,6.14
2023-01-15T15:59:33.952Z,5.98
2023-01-15T16:02:18.294Z,5.97
2023-01-15T16:04:55.015Z,6.00
2023-01-15T16:07:33.850Z,5.99
2023-01-15T16:10:16.887Z,5.94
2023-01-15T16:12:54.231Z,5.85
2023-01-15T16:15:32.233Z,5.88
2023-01-15T16:18:07.436Z,5.82
2023-01-15T16:20:42.731Z,5.83
2023-01-15T16:23:23.119Z,5.88
2023-01-15T16:26:01.557Z,5.85
2023-01-15T16:28:42.478Z,5.84
2023-01-15T16:31:20.097Z,5.74
2023-01-15T16:33:57.162Z,5.72
2023-01-15T16:36:41.581Z,5.70
2023-01-15T16:39:25.240Z,5.70
2023-01-15T16:42:02.408Z,5.76
2023-01-15T16:44:44.303Z,5.74
2023-01-15T16:47:25.687Z,5.84
2023-01-15T16:50:29.403Z,5.73
2023-01-15T16:53:06.163Z,5.79
2023-01-15T16:55:46.729Z,5.81
2023-01-15T16:58:33.420Z,5.69
2023-01-15T17:01:34.676Z,5.68
2023-01-15T17:04:25.589Z,5.77
2023-01-15T17:07:03.776Z,5.77
2023-01-15T17:09:39.258Z,5.77
2023-01-15T17:12:27.989Z,5.80
2023-01-15T17:15:30.793Z,5.78
2023-01-15T17:18:22.381Z,5.75
2023-01-15T17:20:57.915Z,5.71
2023-01-15T17:23:38.950Z,5.71
2023-01-15T17:26:20.094Z,5.73
2023-01-15T17:28:56.114Z,5.68
2023-01-15T17:31:32.565Z,5.77
2023-01-15T17:34:07.339Z,5.74
2023-01-15T17:36:42.383Z,5.73
2023-01-15T17:39:20.363Z,5.70
2023-01-15T17:41:55.436Z,5.77
2023-01-15T17:44:32.402Z,5.79
2023-01-15T17:47:07.726Z,5.82
2023-01-15T17:49:42.157Z,8.46
2023-01-15T17:52:20.731Z,7.63
2023-01-15T17:55:12.683Z,6.78
2023-01-15T17:58:05.230Z,6.47
2023-01-15T18:00:58.771Z,6.34
2023-01-15T18:03:51.948Z,6.21
2023-01-15T18:06:26.489Z,6.12
2023-01-15T18:09:04.241Z,6.11
2023-01-15T18:11:38.923Z,8.57
2023-01-15T18:14:14.173Z,10.41
2023-01-15T18:16:50.003Z,10.30
2023-01-15T18:19:24.825Z,8.94
2023-01-15T18:21:59.535Z,8.00
2023-01-15T18:24:34.267Z,7.78
2023-01-15T18:27:08.458Z,7.54
2023-01-15T18:29:43.777Z,7.41
2023-01-15T18:32:20.713Z,6.96
2023-01-15T18:34:55.555Z,6.78
2023-01-15T18:37:30.013Z,6.69
2023-01-15T18:40:04.820Z,6.70
2023-01-15T18:42:57.741Z,6.52
2023-01-15T18:45:50.002Z,6.40
2023-01-15T18:48:25.872Z,6.41
2023-01-15T18:51:07.217Z,6.37
2023-01-15T18:53:41.773Z,6.35
2023-01-15T18:56:36.986Z,6.32
2023-01-15T18:59:14.964Z,6.37
2023-01-15T19:01:50.460Z,6.21
2023-01-15T19:04:26.651Z,6.24
2023-01-15T19:07:03.654Z,6.21
2023-01-15T19:09:38.519Z,6.33
2023-01-15T19:12:14.656Z,6.49
2023-01-15T19:15:06.244Z,6.29
2023-01-15T19:17:58.612Z,6.23
2023-01-15T19:20:34.638Z,6.46
2023-01-15T19:23:09.527Z,6.26
2023-01-15T19:25:46.169Z,6.06
2023-01-15T19:28:22.333Z,6.28
2023-01-15T19:31:20.279Z,6.14
2023-01-15T19:34:07.944Z,5.99
2023-01-15T19:36:54.748Z,5.98
2023-01-15T19:39:30.515Z,10.27
2023-01-15T19:42:22.791Z,8.32
2023-01-15T19:45:15.030Z,6.99
2023-01-15T19:48:07.548Z,6.74
2023-01-15T19:50:44.661Z,6.18
2023-01-15T19:53:20.374Z,6.22
2023-01-15T19:55:55.320Z,6.22
2023-01-15T19:58:29.930Z,6.06
2023-01-15T20:01:05.299Z,6.32
2023-01-15T20:03:40.258Z,5.98
2023-01-15T20:06:15.235Z,6.02
2023-01-15T20:08:51.310Z,6.22
2023-01-15T20:11:45.893Z,6.03
2023-01-15T20:14:20.138Z,5.98
2023-01-15T20:16:54.666Z,6.20
2023-01-15T20:19:29.573Z,6.06
2023-01-15T20:22:04.297Z,6.20
2023-01-15T20:24:42.824Z,6.27
2023-01-15T20:27:17.252Z,7.36
2023-01-15T20:29:52.779Z,8.46
2023-01-15T20:32:27.313Z,7.80
2023-01-15T20:35:02.219Z,7.13
2023-01-15T20:37:39.422Z,6.64
2023-01-15T20:40:16.910Z,6.56
2023-01-15T20:43:08.879Z,6.46
2023-01-15T20:45:43.551Z,6.31
2023-01-15T20:48:44.497Z,6.20
2023-01-15T20:51:20.127Z,5.93
2023-01-15T20:53:54.890Z,6.03
2023-01-15T20:56:31.069Z,6.21
2023-01-15T20:59:05.656Z,6.19
2023-01-15T21:01:41.795Z,6.21
2023-01-15T21:04:16.263Z,6.32
2023-01-15T21:06:51.013Z,6.14
2023-01-15T21:09:25.314Z,7.92
2023-01-15T21:12:01.776Z,9.09
2023-01-15T21:14:36.201Z,8.78
2023-01-15T21:17:11.446Z,9.58
2023-01-15T21:19:46.200Z,9.90
2023-01-15T21:22:20.874Z,9.39
2023-01-15T21:24:55.152Z,8.16
2023-01-15T21:27:32.172Z,7.24
2023-01-15T21:30:08.891Z,6.93
2023-01-15T21:32:46.463Z,6.70
2023-01-15T21:35:20.808Z,6.49
2023-01-15T21:37:55.347Z,6.19
2023-01-15T21:40:29.575Z,6.19
2023-01-15T21:43:23.174Z,6.20
2023-01-15T21:46:03.384Z,6.27
2023-01-15T21:48:37.916Z,6.07
2023-01-15T21:51:12.276Z,6.10
2023-01-15T21:53:46.859Z,6.21
2023-01-15T21:56:21.465Z,6.08
2023-01-15T21:58:57.849Z,5.89
2023-01-15T22:01:32.193Z,6.07
2023-01-15T22:04:07.640Z,5.76
2023-01-15T22:06:41.868Z,5.67
2023-01-15T22:09:17.888Z,5.69
2023-01-15T22:11:52.786Z,5.74
2023-01-15T22:14:30.263Z,5.83
2023-01-15T22:17:05.549Z,6.01
2023-01-15T22:19:40.051Z,5.75
2023-01-15T22:22:14.496Z,5.98
2023-01-15T22:24:48.917Z,5.73
2023-01-15T22:27:23.114Z,5.85
2023-01-15T22:29:59.087Z,5.91
2023-01-15T22:32:33.321Z,5.77
2023-01-15T22:35:09.029Z,5.65
2023-01-15T22:37:43.483Z,5.58
2023-01-15T22:40:18.136Z,5.51
2023-01-15T22:42:52.332Z,5.46
2023-01-15T22:45:28.245Z,5.46
2023-01-15T22:48:02.428Z,5.68
2023-01-15T22:50:38.367Z,5.49
2023-01-15T22:53:12.951Z,5.45
2023-01-15T22:55:55.565Z,5.45
2023-01-15T22:58:29.805Z,5.49
2023-01-15T23:03:08.241Z,6.36
2023-01-15T23:05:43.209Z,6.36
2023-01-15T23:08:17.602Z,5.73
2023-01-15T23:10:52.104Z,5.66
2023-01-15T23:13:26.320Z,5.86
2023-01-15T23:16:02.062Z,5.84
2023-01-15T23:18:37.959Z,5.80
2023-01-15T23:21:15.316Z,5.83
2023-01-15T23:23:53.837Z,5.80
2023-01-15T23:26:31.842Z,5.80
2023-01-15T23:29:06.828Z,5.76
2023-01-15T23:31:41.314Z,5.78
2023-01-15T23:34:17.101Z,5.78
2023-01-15T23:36:51.539Z,5.82
2023-01-15T23:39:27.229Z,5.89
2023-01-15T23:42:21.701Z,5.85
2023-01-15T23:45:13.320Z,5.75
2023-01-15T23:47:47.961Z,5.82
2023-01-15T23:50:24.978Z,5.86
2023-01-15T23:52:59.475Z,5.83
2023-01-15T23:55:33.639Z,5.85
2023-01-15T23:58:08.304Z,5.84
